Time;durP1;ratioP1;P1;durP2;ratioP2;P2;SDS_P1;SDS_P2;PMS_P1;PMS_P2;Temp;Humidity;BMP_temperature;BMP_pressure;BME280_temperature;BME280_humidity;BME280_pressure;Samples;Min_cycle;Max_cycle;Signal;HPM_P1;HPM_P2
2022/07/26 00:00:21;;;;;;;14.13;12.83;;;23.30;73.00;;;23.84;55.11;94769.47;5049461;28;21055;-61
2022/07/26 00:02:48;;;;;;;13.40;10.63;;;23.30;73.50;;;23.80;55.42;94757.53;5049155;28;20447;-58
2022/07/26 00:05:15;;;;;;;14.07;12.63;;;23.20;73.10;;;23.75;55.39;94760.06;5049099;28;20448;-58
2022/07/26 00:07:43;;;;;;;15.27;12.50;;;23.20;73.40;;;23.68;55.52;94762.84;5049618;28;20638;-60
2022/07/26 00:10:10;;;;;;;13.87;12.47;;;23.10;73.30;;;23.62;55.39;94759.19;5048383;28;20451;-61
2022/07/26 00:12:39;;;;;;;18.30;13.20;;;23.10;73.60;;;23.57;56.04;94753.66;5049440;28;20841;-60
2022/07/26 00:15:07;;;;;;;13.47;10.37;;;23.00;74.30;;;23.52;55.94;94755.38;5048532;28;20517;-60
2022/07/26 00:17:34;;;;;;;14.40;12.90;;;23.00;74.00;;;23.50;55.95;94757.47;5044439;28;20540;-61
2022/07/26 00:20:03;;;;;;;22.13;12.50;;;22.90;74.40;;;;;;5048221;28;20525;-57
2022/07/26 00:22:38;;;;;;;13.30;11.97;;;22.90;74.80;;;23.44;56.35;94751.13;5048275;28;20550;-60
2022/07/26 00:25:07;;;;;;;12.80;11.60;;;22.90;75.00;;;23.41;56.04;94744.34;5048166;28;20447;-61
2022/07/26 00:27:35;;;;;;;16.00;11.70;;;22.80;74.70;;;23.39;56.26;94743.75;5048171;28;20471;-58
2022/07/26 00:30:05;;;;;;;14.27;12.30;;;22.80;74.90;;;23.38;56.60;94749.34;5048702;28;20487;-57
2022/07/26 00:32:32;;;;;;;13.20;11.90;;;22.80;74.90;;;23.33;56.80;94735.75;5048454;28;20478;-57
2022/07/26 00:34:59;;;;;;;21.07;13.70;;;22.80;75.30;;;23.32;56.70;94734.94;5048216;28;20541;-62
2022/07/26 00:37:27;;;;;;;14.73;12.23;;;22.80;75.60;;;23.30;56.52;94737.03;5048071;28;20637;-58
2022/07/26 00:39:54;;;;;;;14.57;12.87;;;22.80;75.80;;;23.31;56.90;94735.16;5047283;28;20498;-60
2022/07/26 00:42:21;;;;;;;16.60;11.73;;;22.70;75.90;;;23.29;57.25;94734.56;5048016;28;20549;-61
2022/07/26 00:44:48;;;;;;;15.83;12.93;;;22.70;76.10;;;23.29;56.56;94739.94;5046124;28;20593;-56
2022/07/26 00:47:17;;;;;;;19.00;11.97;;;22.70;76.10;;;23.27;57.41;94738.28;5048273;28;20909;-58
2022/07/26 00:49:44;;;;;;;13.50;11.40;;;22.70;76.10;;;23.26;57.39;94741.19;5048250;28;20475;-59
2022/07/26 00:52:11;;;;;;;15.37;13.60;;;22.70;76.10;;;23.24;57.18;94733.38;5048131;28;20475;-60
2022/07/26 00:54:39;;;;;;;18.37;13.80;;;22.60;76.40;;;23.23;57.61;94745.13;5047948;28;20456;-60
2022/07/26 00:57:06;;;;;;;16.90;11.63;;;22.70;76.90;;;23.24;57.03;94740.59;5048204;28;20471;-57
2022/07/26 00:59:34;;;;;;;15.03;12.70;;;22.70;76.60;;;23.23;57.38;94731.72;5047662;28;20491;-58
2022/07/26 01:02:01;;;;;;;12.40;11.20;;;22.60;76.50;;;23.23;57.11;94738.94;5047195;28;20482;-57
2022/07/26 01:04:29;;;;;;;14.03;12.60;;;22.60;76.90;;;23.24;57.64;94733.38;5043493;28;21002;-61
2022/07/26 01:06:57;;;;;;;14.33;12.93;;;22.60;76.90;;;23.23;57.50;94739.75;5047192;28;20468;-58
2022/07/26 01:09:24;;;;;;;14.37;12.00;;;22.70;77.00;;;23.24;57.90;94741.41;5046183;28;20517;-59
2022/07/26 01:11:51;;;;;;;16.23;12.50;;;22.70;77.20;;;23.24;57.51;94733.38;5047345;28;20471;-58
2022/07/26 01:14:20;;;;;;;15.00;13.23;;;22.70;77.10;;;23.23;57.63;94741.63;5047422;28;20940;-58
2022/07/26 01:16:47;;;;;;;14.17;12.70;;;22.70;77.00;;;23.20;57.94;94742.91;5046433;28;20506;-63
2022/07/26 01:19:14;;;;;;;16.40;12.93;;;22.60;77.20;;;23.19;57.56;94746.63;5047315;28;20557;-58
2022/07/26 01:21:43;;;;;;;17.20;12.77;;;22.60;77.20;;;23.15;57.42;94745.44;5047242;28;20533;-58
2022/07/26 01:24:10;;;;;;;13.73;12.33;;;22.60;77.30;;;23.13;57.68;94736.78;5047784;28;20925;-58
2022/07/26 01:26:39;;;;;;;15.30;12.53;;;22.60;77.40;;;23.11;57.48;94741.53;5047252;28;20827;-60
2022/07/26 01:29:06;;;;;;;13.50;11.93;;;22.50;77.30;;;23.08;57.51;94739.25;5047404;28;20452;-59
2022/07/26 01:31:33;;;;;;;17.40;12.50;;;22.50;77.30;;;23.04;57.44;94738.09;5047263;28;20732;-60
2022/07/26 01:34:01;;;;;;;18.70;13.97;;;22.50;77.50;;;23.00;57.73;94734.19;5047031;28;20813;-60
2022/07/26 01:36:28;;;;;;;16.97;13.60;;;22.50;77.90;;;22.96;57.87;94730.31;5046819;28;20545;-58
2022/07/26 01:38:56;;;;;;;15.23;12.80;;;22.40;77.70;;;22.92;58.24;94729.94;5046693;28;20491;-60
2022/07/26 01:41:24;;;;;;;13.30;11.73;;;22.40;77.80;;;22.88;57.64;94726.03;5046490;28;20476;-60
2022/07/26 01:43:51;;;;;;;13.60;12.30;;;22.30;77.90;;;22.84;57.77;94728.34;5047566;28;20462;-59
2022/07/26 01:46:18;;;;;;;13.90;12.43;;;22.30;78.10;;;22.80;58.02;94726.31;5046905;28;20480;-57
2022/07/26 01:48:45;;;;;;;13.53;12.20;;;22.20;78.20;;;22.77;58.18;94730.25;5046924;28;20565;-57
2022/07/26 01:51:12;;;;;;;14.57;13.00;;;22.30;78.30;;;22.74;58.01;94728.00;5045128;28;20483;-57
2022/07/26 01:53:39;;;;;;;15.50;12.90;;;22.20;78.40;;;22.71;58.46;94733.81;5046701;28;20451;-60
2022/07/26 01:56:08;;;;;;;14.77;13.23;;;22.20;78.40;;;22.67;58.41;94732.63;5046856;28;20535;-59
2022/07/26 01:58:36;;;;;;;14.90;12.70;;;22.10;78.30;;;22.65;58.07;94730.16;5047022;28;20495;-61
2022/07/26 02:01:03;;;;;;;14.67;13.27;;;22.10;78.80;;;22.62;58.87;94735.13;5047012;28;20472;-62
2022/07/26 02:03:30;;;;;;;14.70;12.20;;;22.10;79.20;;;22.60;58.20;94745.25;5046983;28;20521;-60
2022/07/26 02:05:57;;;;;;;16.33;12.63;;;22.00;79.20;;;22.58;58.55;94731.25;5043183;28;20472;-57
2022/07/26 02:08:24;;;;;;;14.50;13.07;;;22.00;79.40;;;22.56;58.61;94736.84;5046236;28;20455;-60
2022/07/26 02:11:01;;;;;;;15.50;13.83;;;22.00;80.20;;;22.54;58.73;94744.25;5046771;28;21061;-60
2022/07/26 02:13:31;;;;;;;14.47;13.07;;;22.00;79.70;;;22.53;58.44;94748.00;5046341;28;20960;-59
2022/07/26 02:15:58;;;;;;;16.13;12.37;;;22.00;79.80;;;22.50;58.99;94746.56;5042604;28;21072;-60
2022/07/26 02:18:27;;;;;;;18.03;13.83;;;22.00;79.80;;;22.50;58.70;94743.88;5041526;28;20480;-59
2022/07/26 02:20:54;;;;;;;15.13;13.30;;;21.90;79.70;;;22.49;58.93;94749.44;5046325;28;20555;-63
2022/07/26 02:23:21;;;;;;;17.83;12.93;;;21.90;79.90;;;22.48;58.97;94748.63;5046116;28;20509;-60
2022/07/26 02:25:48;;;;;;;14.83;12.77;;;21.90;79.80;;;22.47;58.68;94743.50;5046041;28;20476;-57
2022/07/26 02:28:16;;;;;;;15.27;12.57;;;21.90;79.70;;;22.45;59.07;94751.75;5046103;28;20448;-62
2022/07/26 02:30:45;;;;;;;18.60;12.90;;;21.90;80.30;;;22.43;59.18;94751.13;5042182;28;20741;-60
2022/07/26 02:33:12;;;;;;;17.30;13.13;;;21.90;80.20;;;22.41;58.94;94742.50;5046176;28;20601;-58
2022/07/26 02:35:39;;;;;;;16.17;13.40;;;21.90;80.20;;;22.40;59.32;94742.72;5046730;28;20514;-59
2022/07/26 02:38:08;;;;;;;27.20;13.83;;;21.90;80.30;;;22.36;59.00;94739.66;5045376;28;20529;-60
2022/07/26 02:40:36;;;;;;;20.50;15.73;;;21.80;80.40;;;22.31;58.91;94744.84;5046093;28;20492;-61
2022/07/26 02:43:03;;;;;;;15.80;13.07;;;21.80;80.10;;;22.27;59.36;94743.59;5045292;28;20460;-58
2022/07/26 02:45:30;;;;;;;17.13;14.40;;;21.70;80.50;;;22.26;59.47;94753.50;5043535;28;20448;-60
2022/07/26 02:47:59;;;;;;;21.70;13.90;;;21.70;81.20;;;22.26;59.67;94753.50;5045862;28;20837;-58
2022/07/26 02:50:27;;;;;;;14.50;12.10;;;21.70;81.30;;;22.27;59.71;94754.31;5046041;28;20463;-58
2022/07/26 02:52:54;;;;;;;15.67;13.47;;;21.80;81.50;;;22.27;59.55;94752.44;5045596;28;20968;-58
2022/07/26 02:55:23;;;;;;;16.10;13.33;;;21.70;81.60;;;22.26;59.66;94753.50;5045549;28;20518;-60
2022/07/26 02:57:50;;;;;;;14.63;12.60;;;21.70;81.50;;;22.26;59.35;94753.50;5045531;28;20439;-60
2022/07/26 03:00:20;;;;;;;18.07;13.40;;;21.70;81.40;;;22.27;59.59;94751.63;5045592;28;20588;-61
2022/07/26 03:02:47;;;;;;;16.90;14.07;;;21.70;81.60;;;22.26;59.47;94756.19;5046121;28;20601;-59
2022/07/26 03:05:17;;;;;;;17.27;12.83;;;21.70;81.60;;;22.27;59.51;94759.66;5045811;28;20463;-60
2022/07/26 03:07:44;;;;;;;20.43;13.53;;;21.70;81.60;;;22.25;59.45;94748.34;5045167;28;20570;-61
2022/07/26 03:10:11;;;;;;;17.20;14.73;;;21.70;81.60;;;22.24;59.58;94752.06;5045292;28;20455;-58
2022/07/26 03:12:38;;;;;;;16.97;14.10;;;21.70;81.40;;;22.21;59.27;94758.66;5041717;28;20972;-59
2022/07/26 03:15:07;;;;;;;14.57;13.00;;;21.70;81.60;;;22.18;59.42;94757.25;5045116;28;20451;-61
2022/07/26 03:17:35;;;;;;;14.43;12.77;;;21.70;81.60;;;22.18;59.41;94757.25;5042563;28;20569;-59
2022/07/26 03:20:03;;;;;;;15.13;13.53;;;21.70;81.60;;;22.18;59.22;94761.78;5045629;28;20487;-61
2022/07/26 03:22:31;;;;;;;16.80;12.80;;;21.70;81.60;;;22.19;59.85;94763.41;5045584;28;20871;-60
2022/07/26 03:24:58;;;;;;;15.63;13.33;;;21.70;82.50;;;22.19;59.63;94758.88;5045446;28;20451;-59
2022/07/26 03:27:26;;;;;;;21.07;13.10;;;21.70;82.50;;;22.21;59.59;94764.03;5045663;28;20481;-61
2022/07/26 03:29:53;;;;;;;18.20;13.57;;;21.70;82.10;;;22.22;59.21;94759.50;5045289;28;20891;-62
2022/07/26 03:32:20;;;;;;;19.10;12.27;;;21.70;82.00;;;22.24;59.86;94765.47;5045157;28;20839;-61
2022/07/26 03:34:47;;;;;;;15.00;13.40;;;21.70;82.50;;;22.28;59.66;94764.00;5049458;28;20855;-61
2022/07/26 03:37:15;;;;;;;17.23;13.00;;;21.70;82.40;;;22.32;59.76;94765.22;5049710;28;20541;-62
2022/07/26 03:39:43;;;;;;;17.57;13.00;;;21.80;82.80;;;22.38;59.79;94767.88;5049459;28;20592;-59
2022/07/26 03:42:10;;;;;;;17.30;13.03;;;21.80;82.70;;;22.44;59.70;94768.03;5045875;28;20996;-63
2022/07/26 03:44:38;;;;;;;20.53;13.50;;;21.90;82.70;;;22.48;59.16;94766.56;5046208;28;20569;-60
2022/07/26 03:47:05;;;;;;;15.80;13.60;;;22.00;82.70;;;22.52;59.40;94771.28;5049184;28;20525;-64
2022/07/26 03:49:32;;;;;;;23.53;13.30;;;22.00;82.70;;;22.58;59.61;94766.91;5049094;28;20459;-63
2022/07/26 03:52:00;;;;;;;18.03;13.67;;;22.00;82.70;;;22.61;59.25;94766.47;5048736;28;21084;-60
2022/07/26 03:54:27;;;;;;;20.93;14.43;;;22.00;82.50;;;22.66;59.34;94768.50;5049115;28;20494;-60
2022/07/26 03:56:55;;;;;;;25.27;13.77;;;22.10;82.70;;;22.69;59.51;94768.88;5048774;28;20480;-64
2022/07/26 03:59:22;;;;;;;27.07;14.20;;;22.10;82.40;;;22.71;58.93;94764.16;5049057;28;20491;-60
2022/07/26 04:01:50;;;;;;;27.03;14.53;;;22.20;82.70;;;22.70;58.96;94765.16;5048021;28;20476;-62
2022/07/26 04:04:17;;;;;;;29.13;15.10;;;22.20;82.70;;;22.73;58.84;94758.56;5048356;28;20448;-60
2022/07/26 04:06:45;;;;;;;19.97;15.37;;;22.20;82.50;;;22.72;59.41;94763.09;5047890;28;20486;-62
2022/07/26 04:09:12;;;;;;;29.63;16.77;;;22.20;82.10;;;22.74;59.03;94757.50;5048584;28;20976;-58
2022/07/26 04:11:40;;;;;;;22.83;15.53;;;22.20;82.40;;;22.77;59.40;94765.13;5048202;28;20471;-59
2022/07/26 04:14:08;;;;;;;29.90;15.73;;;22.20;82.10;;;22.79;58.79;94768.41;5048883;28;20530;-62
2022/07/26 04:16:36;;;;;;;24.97;16.10;;;22.20;82.20;;;22.82;59.07;94767.13;5045997;28;20472;-58
2022/07/26 04:19:03;;;;;;;24.47;17.13;;;22.30;82.80;;;22.85;59.20;94770.22;5046973;28;20448;-63
2022/07/26 04:21:31;;;;;;;32.20;17.07;;;22.30;82.20;;;22.89;59.23;94765.22;5048040;28;20467;-59
2022/07/26 04:23:58;;;;;;;27.43;15.57;;;22.30;82.70;;;22.94;59.42;94761.91;5045930;28;20498;-59
2022/07/26 04:26:25;;;;;;;22.43;14.97;;;22.40;82.60;;;22.99;58.52;94760.22;5047299;28;20801;-59
2022/07/26 04:28:52;;;;;;;29.43;16.30;;;22.40;82.30;;;23.04;58.89;94759.53;5045926;28;20509;-62
2022/07/26 04:31:21;;;;;;;20.83;16.23;;;22.50;82.50;;;23.10;58.91;94753.34;5045677;28;20476;-58
2022/07/26 04:33:49;;;;;;;23.60;15.80;;;22.50;82.50;;;23.17;58.54;94750.56;5045362;28;20447;-60
2022/07/26 04:36:16;;;;;;;36.73;17.53;;;22.60;82.50;;;23.20;58.64;94761.69;5045987;28;20471;-59
2022/07/26 04:38:43;;;;;;;25.43;15.97;;;22.60;82.30;;;23.24;57.90;94757.53;5046838;28;20455;-63
2022/07/26 04:41:10;;;;;;;28.00;16.07;;;22.70;81.90;;;23.25;58.51;94761.84;5047212;28;21136;-62
2022/07/26 04:43:38;;;;;;;26.20;16.30;;;22.70;81.80;;;23.28;58.24;94757.88;5044031;28;20545;-60
2022/07/26 04:46:05;;;;;;;21.83;15.90;;;22.70;81.70;;;23.30;58.26;94753.13;5044913;28;20468;-61
2022/07/26 04:48:34;;;;;;;25.23;16.90;;;22.70;81.50;;;23.33;58.03;94754.53;5047760;28;20464;-61
2022/07/26 04:51:01;;;;;;;21.73;15.87;;;22.70;81.60;;;23.34;57.62;94756.19;5046049;28;20529;-58
2022/07/26 04:53:28;;;;;;;20.40;15.23;;;22.80;81.50;;;23.37;57.68;94766.47;5047776;28;20478;-61
2022/07/26 04:56:11;;;;;;;16.93;15.00;;;22.80;81.50;;;23.40;58.38;94769.53;5016910;28;20665;-61
2022/07/26 04:58:38;;;;;;;21.27;15.73;;;22.80;81.60;;;23.40;57.50;94756.09;5048125;28;20466;-63
2022/07/26 05:01:05;;;;;;;17.67;15.30;;;22.80;81.30;;;23.40;57.95;94757.97;5047320;28;20502;-63
2022/07/26 05:03:34;;;;;;;18.27;15.03;;;22.90;81.30;;;23.41;57.45;94754.25;5047259;28;20496;-59
2022/07/26 05:06:01;;;;;;;18.67;14.03;;;22.80;81.10;;;23.42;57.93;94761.25;5043936;28;20464;-62
2022/07/26 05:08:28;;;;;;;17.27;14.80;;;22.90;81.50;;;;;;5048174;28;20513;-62
2022/07/26 05:10:55;;;;;;;23.33;14.20;;;22.90;81.40;;;23.52;57.75;94760.75;5047779;28;20525;-62
2022/07/26 05:13:22;;;;;;;20.20;16.10;;;22.90;81.90;;;23.56;57.39;94757.41;5048176;28;20456;-61
2022/07/26 05:15:50;;;;;;;18.20;14.00;;;23.00;81.50;;;23.62;57.16;94753.81;5047424;28;20475;-59
2022/07/26 05:18:17;;;;;;;24.53;15.07;;;23.10;81.40;;;23.71;57.14;94753.53;5045315;28;20509;-62
2022/07/26 05:20:46;;;;;;;21.30;15.67;;;23.10;81.30;;;23.80;57.86;94754.84;5047334;28;20491;-58
2022/07/26 05:23:15;;;;;;;23.60;14.20;;;23.20;81.30;;;23.89;57.02;94750.00;5047233;28;20480;-60
2022/07/26 05:25:42;;;;;;;18.20;16.10;;;23.30;81.40;;;23.98;57.21;94756.72;5047116;28;20467;-62
2022/07/26 05:28:10;;;;;;;18.17;15.90;;;23.40;81.30;;;24.09;57.26;94749.75;5047812;28;20524;-60
2022/07/26 05:30:37;;;;;;;18.83;16.37;;;23.50;81.30;;;24.23;56.71;94756.59;5046932;28;20825;-59
2022/07/26 05:33:05;;;;;;;21.97;15.50;;;23.60;81.30;;;24.40;56.98;94750.56;5046076;28;20447;-62
2022/07/26 05:35:32;;;;;;;22.50;16.50;;;23.70;80.80;;;24.59;56.38;94751.38;5046967;28;20970;-58
2022/07/26 05:38:00;;;;;;;17.03;13.67;;;23.90;80.40;;;24.75;55.90;94750.69;5047110;28;20968;-61
2022/07/26 05:40:27;;;;;;;20.87;15.00;;;24.10;79.60;;;24.89;55.58;94759.38;5046653;28;20490;-61
2022/07/26 05:42:55;;;;;;;20.30;15.60;;;24.20;79.20;;;25.10;54.93;94749.06;5046865;28;20459;-59
2022/07/26 05:45:22;;;;;;;26.37;16.13;;;24.40;78.70;;;25.29;55.08;94747.94;5043411;28;20513;-61
2022/07/26 05:47:50;;;;;;;21.53;16.20;;;24.50;78.00;;;25.51;54.32;94740.06;5047220;28;20459;-62
2022/07/26 05:50:17;;;;;;;18.67;15.17;;;24.80;77.60;;;25.73;54.08;94742.16;5047141;28;20536;-60
2022/07/26 05:52:44;;;;;;;23.87;15.17;;;25.00;77.10;;;25.95;53.27;94743.16;5046721;28;20474;-61
2022/07/26 05:55:13;;;;;;;19.60;15.37;;;25.20;76.40;;;26.20;53.58;94738.53;5046044;28;20471;-62
2022/07/26 05:57:41;;;;;;;21.03;15.73;;;25.40;75.90;;;26.44;52.90;94729.25;5047426;28;20532;-60
2022/07/26 06:00:09;;;;;;;31.10;14.87;;;25.70;75.20;;;26.67;52.49;94738.31;5046331;28;20581;-59
2022/07/26 06:02:36;;;;;;;20.07;16.70;;;25.90;74.50;;;26.89;52.00;94740.28;5046331;28;20471;-58
2022/07/26 06:05:05;;;;;;;22.27;15.17;;;26.10;73.80;;;27.08;51.46;94733.59;5046013;28;21047;-59
2022/07/26 06:07:32;;;;;;;20.23;15.90;;;26.30;73.00;;;27.27;51.48;94728.72;5046846;28;20471;-61
2022/07/26 06:09:59;;;;;;;23.60;15.20;;;26.50;72.30;;;27.48;50.89;94724.47;5046669;28;20489;-59
2022/07/26 06:12:28;;;;;;;22.00;15.30;;;26.70;71.60;;;27.68;50.21;94731.19;5046926;28;20475;-63
2022/07/26 06:14:55;;;;;;;22.77;15.07;;;26.90;70.80;;;27.87;49.81;94727.13;5046384;28;20467;-62
2022/07/26 06:17:22;;;;;;;18.23;14.17;;;27.10;70.20;;;28.05;49.52;94723.28;5043777;28;20549;-58
2022/07/26 06:19:49;;;;;;;18.43;15.40;;;27.30;69.60;;;28.25;49.41;94722.69;5046628;28;20498;-61
2022/07/26 06:22:17;;;;;;;23.13;15.77;;;27.40;69.00;;;28.44;48.65;94720.47;5046115;28;20529;-61
2022/07/26 06:24:44;;;;;;;18.03;15.47;;;27.60;68.30;;;28.61;48.74;94724.97;5046430;28;20447;-59
2022/07/26 06:27:11;;;;;;;15.43;13.87;;;27.80;67.40;;;28.79;48.10;94723.78;5046217;28;20532;-62
2022/07/26 06:29:40;;;;;;;32.90;15.27;;;28.00;66.90;;;28.94;47.49;94721.19;5046378;28;20883;-61
2022/07/26 06:32:07;;;;;;;19.00;16.07;;;28.10;66.30;;;29.08;47.30;94718.03;5045279;28;20467;-61
2022/07/26 06:34:34;;;;;;;21.20;16.23;;;28.30;65.90;;;29.24;47.78;94721.72;5045371;28;20513;-61
2022/07/26 06:37:02;;;;;;;20.43;15.60;;;28.40;65.60;;;29.41;46.80;94721.53;5046153;28;20536;-58
2022/07/26 06:39:31;;;;;;;17.63;14.03;;;28.60;65.20;;;29.57;46.82;94720.53;5045913;28;20528;-58
2022/07/26 06:41:58;;;;;;;22.83;15.73;;;28.80;64.50;;;29.73;46.11;94713.31;5046105;28;20502;-62
2022/07/26 06:44:25;;;;;;;19.83;15.43;;;28.90;63.50;;;29.87;45.84;94713.66;5042839;28;20522;-63
2022/07/26 06:46:54;;;;;;;27.80;14.80;;;29.00;63.40;;;30.02;45.80;94711.00;5046333;28;20987;-59
2022/07/26 06:49:21;;;;;;;28.37;15.90;;;29.20;63.20;;;30.22;45.84;94720.28;5045754;28;20985;-61
2022/07/26 06:51:48;;;;;;;22.73;16.30;;;29.40;62.80;;;30.43;45.54;94709.50;5045689;28;20228;-57
2022/07/26 06:54:15;;;;;;;19.53;14.20;;;29.60;62.00;;;30.63;45.58;94711.41;5043295;28;20208;-61
2022/07/26 06:56:43;;;;;;;21.97;16.00;;;29.80;62.20;;;30.83;45.17;94707.91;5045178;28;20306;-61
2022/07/26 06:59:10;;;;;;;21.40;15.77;;;30.00;61.50;;;31.00;44.09;94711.22;5045284;28;20688;-61
2022/07/26 07:01:37;;;;;;;32.10;16.13;;;30.10;60.90;;;31.07;43.76;94711.72;5044435;28;20263;-59
2022/07/26 07:04:06;;;;;;;26.03;15.93;;;30.20;59.80;;;31.12;44.37;94716.34;5045085;28;20232;-64
2022/07/26 07:06:33;;;;;;;22.60;14.87;;;30.30;59.80;;;31.21;44.01;94713.91;5041579;28;20368;-60
2022/07/26 07:09:01;;;;;;;20.63;15.63;;;30.30;59.50;;;31.30;43.67;94708.72;5045155;28;20661;-59
2022/07/26 07:11:28;;;;;;;19.40;15.57;;;30.50;59.20;;;31.33;42.97;94713.63;5045257;28;20692;-62
2022/07/26 07:13:55;;;;;;;26.50;17.70;;;30.50;58.70;;;31.37;42.95;94707.34;5045212;28;20670;-59
2022/07/26 07:16:22;;;;;;;21.63;17.43;;;30.60;58.60;;;31.30;42.62;94706.00;5045107;28;20213;-59
2022/07/26 07:18:50;;;;;;;29.40;14.80;;;30.60;58.10;;;31.20;43.17;94713.09;5042494;28;20201;-59
2022/07/26 07:21:18;;;;;;;18.97;16.83;;;30.40;58.10;;;31.24;42.85;94703.28;5045163;28;20709;-58
2022/07/26 07:23:45;;;;;;;26.53;16.80;;;30.40;58.10;;;31.28;42.95;94704.38;5044801;28;20662;-59
2022/07/26 07:26:13;;;;;;;22.27;15.47;;;30.50;58.00;;;31.34;43.03;94705.19;5045420;28;20234;-63
2022/07/26 07:28:40;;;;;;;26.90;14.87;;;30.50;58.10;;;31.53;42.96;94707.31;5045106;28;20197;-61
2022/07/26 07:31:07;;;;;;;24.97;13.47;;;30.70;58.40;;;31.79;42.60;94705.34;5044507;28;20232;-62
2022/07/26 07:33:34;;;;;;;17.77;14.67;;;30.90;58.20;;;32.06;42.38;94713.13;5043885;28;20232;-62
2022/07/26 07:36:02;;;;;;;23.00;14.17;;;31.10;57.70;;;32.34;42.01;94703.47;5045292;28;20221;-61
2022/07/26 07:38:30;;;;;;;27.85;14.05;;;31.40;57.20;;;32.63;41.49;94705.47;5044693;28;20345;-62
2022/07/26 07:40:58;;;;;;;19.70;14.20;;;31.70;56.70;;;32.93;41.03;94708.28;5044721;28;20770;-59
2022/07/26 07:43:25;;;;;;;24.38;14.55;;;32.00;56.20;;;33.18;40.49;94704.50;5044706;28;20204;-58
2022/07/26 07:45:52;;;;;;;18.05;15.27;;;32.30;55.80;;;33.44;40.52;94704.28;5041281;28;20575;-63
2022/07/26 07:48:19;;;;;;;17.63;14.90;;;32.50;55.40;;;33.45;39.92;94692.28;5044538;28;20208;-60
2022/07/26 07:50:46;;;;;;;23.80;15.02;;;32.60;54.30;;;33.31;39.84;94698.41;5044582;28;20232;-62
2022/07/26 07:53:14;;;;;;;20.13;16.30;;;32.50;53.90;;;33.18;40.03;94694.44;5040720;28;20251;-61
2022/07/26 07:55:42;;;;;;;17.15;14.65;;;32.40;54.00;;;33.21;40.04;94693.84;5044776;28;20201;-58
2022/07/26 07:58:10;;;;;;;24.23;14.13;;;32.40;54.20;;;33.36;40.01;94694.84;5045643;28;20204;-60
2022/07/26 08:00:37;;;;;;;18.48;15.32;;;32.50;54.20;;;33.53;39.81;94689.72;5045154;28;20328;-63
2022/07/26 08:03:04;;;;;;;17.55;14.70;;;32.60;53.90;;;33.70;39.66;94683.81;5043701;28;20538;-62
2022/07/26 08:05:31;;;;;;;18.17;14.50;;;32.80;53.80;;;33.93;39.08;94686.84;5044258;28;20227;-58
2022/07/26 08:07:59;;;;;;;28.42;14.32;;;33.00;53.60;;;34.22;38.95;94684.00;5045174;28;20200;-58
2022/07/26 08:10:26;;;;;;;29.38;13.95;;;33.20;52.80;;;34.53;37.99;94683.56;5044373;28;20666;-62
2022/07/26 08:12:54;;;;;;;28.63;14.57;;;33.60;53.00;;;34.82;37.69;94680.69;5044964;28;20262;-59
2022/07/26 08:15:22;;;;;;;24.45;14.30;;;33.90;52.40;;;35.10;37.49;94675.31;5044779;28;20200;-60
2022/07/26 08:17:49;;;;;;;21.52;14.40;;;34.20;51.90;;;35.38;37.27;94678.13;5040475;28;20284;-60
2022/07/26 08:20:17;;;;;;;19.02;14.18;;;34.40;51.40;;;35.65;37.19;94673.78;5047599;28;20653;-58
2022/07/26 08:22:44;;;;;;;17.67;15.20;;;34.70;51.00;;;35.91;37.21;94668.63;5047837;28;20231;-61
2022/07/26 08:25:11;;;;;;;18.10;14.27;;;35.00;50.50;;;36.11;36.34;94661.91;5047975;28;20258;-57
2022/07/26 08:27:38;;;;;;;20.02;14.02;;;35.20;50.00;;;36.31;35.43;94657.94;5047945;28;20843;-61
2022/07/26 08:30:09;;;;;;;23.92;14.40;;;35.40;49.90;;;36.53;35.68;94664.56;5048138;28;20615;-61
2022/07/26 08:32:36;;;;;;;21.85;15.30;;;35.60;49.10;;;36.75;35.41;94661.88;5046211;28;20228;-62
2022/07/26 08:35:03;;;;;;;19.95;14.18;;;35.80;48.70;;;36.84;35.35;94658.38;5048078;28;20208;-60
2022/07/26 08:37:30;;;;;;;24.85;14.85;;;36.00;48.30;;;36.91;34.96;94664.25;5048596;28;20278;-62
2022/07/26 08:39:58;;;;;;;18.40;14.38;;;36.00;47.90;;;36.83;34.32;94657.59;5048692;28;20641;-60
2022/07/26 08:42:25;;;;;;;21.15;14.35;;;36.10;47.30;;;36.64;35.02;94652.25;5048203;28;20285;-59
2022/07/26 08:44:52;;;;;;;14.38;12.98;;;35.90;47.50;;;36.71;34.58;94655.34;5044571;28;20197;-59
2022/07/26 08:47:22;;;;;;;17.92;12.35;;;35.90;47.70;;;36.92;33.78;94654.88;5048012;28;20290;-58
2022/07/26 08:49:49;;;;;;;15.90;11.50;;;36.00;47.30;;;37.16;33.94;94648.25;5047518;28;20673;-57
2022/07/26 08:52:16;;;;;;;20.85;12.40;;;36.20;47.30;;;37.41;33.81;94655.81;5048024;28;20651;-61
2022/07/26 08:54:44;;;;;;;23.35;14.10;;;36.50;46.90;;;37.67;33.76;94647.69;5047657;28;20281;-59
2022/07/26 08:57:11;;;;;;;16.90;13.15;;;36.70;46.50;;;37.92;33.61;94650.06;5047376;28;20227;-59
2022/07/26 08:59:39;;;;;;;18.27;13.77;;;37.00;46.20;;;38.16;33.28;94649.63;5047404;28;20254;-60
2022/07/26 09:02:07;;;;;;;14.45;12.82;;;37.20;45.80;;;38.40;32.71;94651.94;5046667;28;20232;-61
2022/07/26 09:04:37;;;;;;;13.88;12.43;;;37.40;45.40;;;38.61;32.62;94645.78;5046475;28;20286;-61
2022/07/26 09:07:06;;;;;;;17.52;14.57;;;37.70;45.00;;;38.77;31.81;94649.69;5046103;28;20595;-60
2022/07/26 09:09:34;;;;;;;14.18;12.77;;;37.80;44.20;;;38.64;31.67;94654.25;5047283;28;20278;-60
2022/07/26 09:12:15;;;;;;;15.23;13.70;;;37.80;43.50;;;38.39;31.15;94650.31;5047172;28;20224;-63
2022/07/26 09:14:45;;;;;;;15.07;11.77;;;37.60;42.70;;;38.28;31.13;94649.81;5043385;28;20223;-62
2022/07/26 09:17:12;;;;;;;12.65;11.20;;;37.40;42.90;;;38.30;31.59;94638.50;5045770;28;20280;-60
2022/07/26 09:19:41;;;;;;;23.13;12.15;;;37.40;43.10;;;38.47;31.41;94641.28;5046681;28;20196;-61
2022/07/26 09:22:09;;;;;;;13.90;12.52;;;37.60;43.30;;;38.65;31.30;94641.28;5046805;28;20657;-59
2022/07/26 09:24:39;;;;;;;12.90;11.38;;;37.70;43.10;;;38.79;30.82;94641.91;5047050;28;20234;-59
2022/07/26 09:27:09;;;;;;;13.15;10.80;;;37.90;42.40;;;38.93;30.67;94641.75;5043546;28;20221;-60
2022/07/26 09:29:46;;;;;;;17.55;9.80;;;37.90;41.80;;;39.13;29.67;94632.03;5045962;28;20298;-62
2022/07/26 09:32:17;;;;;;;16.13;11.68;;;38.10;41.10;;;39.28;29.73;94618.88;5045195;28;20297;-63
2022/07/26 09:34:47;;;;;;;13.20;11.52;;;38.30;40.60;;;39.39;28.91;94629.19;5046650;28;20208;-59
2022/07/26 09:37:14;;;;;;;13.93;11.23;;;38.40;40.30;;;39.49;29.42;94624.44;5046957;28;20310;-61
2022/07/26 09:39:57;;;;;;;18.70;11.20;;;38.60;40.30;;;39.50;28.54;94631.56;5046618;28;20652;-61
2022/07/26 09:42:25;;;;;;;17.10;12.32;;;38.60;39.20;;;39.30;29.16;94622.09;5043746;28;20298;-62
2022/07/26 09:44:52;;;;;;;14.95;11.38;;;38.50;39.50;;;39.20;28.49;94621.31;5042946;28;20286;-63
2022/07/26 09:47:19;;;;;;;13.98;11.02;;;38.40;38.70;;;39.16;28.09;94614.06;5046775;28;20644;-61
2022/07/26 09:49:48;;;;;;;12.45;11.25;;;38.30;38.70;;;39.20;29.08;94613.06;5046086;28;20216;-58
2022/07/26 09:52:17;;;;;;;11.52;10.40;;;38.30;39.50;;;39.28;28.68;94616.13;5046095;28;20228;-62
2022/07/26 09:54:46;;;;;;;11.95;10.88;;;38.40;39.40;;;39.38;28.56;94605.56;5042931;28;20299;-60
2022/07/26 09:57:16;;;;;;;14.43;11.23;;;38.40;39.20;;;39.47;28.75;94607.47;5046394;28;20228;-58
2022/07/26 09:59:43;;;;;;;17.60;11.05;;;38.60;38.80;;;39.47;28.10;94604.72;5046140;28;20678;-59
2022/07/26 10:02:12;;;;;;;13.38;11.20;;;38.60;38.80;;;39.51;28.30;94617.47;5045327;28;20705;-62
2022/07/26 10:04:41;;;;;;;24.92;12.30;;;38.60;38.80;;;39.55;27.66;94610.19;5046228;28;20201;-61
2022/07/26 10:07:10;;;;;;;22.75;11.13;;;38.60;38.80;;;39.55;28.09;94603.88;5045067;28;20237;-59
2022/07/26 10:09:45;;;;;;;13.43;11.52;;;38.60;38.10;;;39.57;27.74;94602.44;5046304;28;20697;-58